Km Imabari — 3FFY8 — position and weather

sailwx.info

Track history (hours):
 
Tides and Currents Weather Stations Pressure Air Temp Water Temp Dewpoint Dewpoint Depression Visibility Wind Speed Wind Dir Waves Ship Positions

Km Imabari

Last reported at 2017-Dec-07 17:02 UTC. Time now 2017-Dec-16 15:11 UTC.
Position N 29°58' W 121°02'.
Warning: this ship's position is 8 days out of date.

Length 225 m; draft 11.9 m.

Type: Cargo ship. MMSI: 352497000.

Date/timePositionNaut miles runAvg speedWind from/ knotsBaromVisibWave heightAir tempDewpointWater temp
2017-Dec-07 17:02N 29°58' W 121°02'012.7
2017-Dec-07 17:00N 29°59' W 121°03'1413.3
2017-Dec-07 15:56N 30°07' W 121°16'713.1
2017-Dec-07 15:24N 30°12' W 121°22'4312.9
2017-Dec-07 12:06N 30°39' W 122°00'113.0
2017-Dec-07 12:00N 30°39' W 122°01'713.0
2017-Dec-07 11:30N 30°44' W 122°07'1312.9
2017-Dec-07 10:29N 30°52' W 122°19'1112.8
2017-Dec-07 09:40N 30°59' W 122°28'212.9
2017-Dec-07 09:30N 31°00' W 122°30'612.9
2017-Dec-07 09:00N 31°04' W 122°36'612.7
2017-Dec-07 08:30N 31°08' W 122°41'1112.8
2017-Dec-07 07:39N 31°15' W 122°51'212.9
2017-Dec-07 07:29N 31°17' W 122°53'712.9
2017-Dec-07 06:58N 31°21' W 122°59'613.0
2017-Dec-07 06:30N 31°25' W 123°05'712.9
2017-Dec-07 05:58N 31°29' W 123°11'612.6
2017-Dec-07 05:30N 31°33' W 123°16'612.7
2017-Dec-07 05:00N 31°37' W 123°22'612.5
2017-Dec-07 04:30N 31°41' W 123°27'612.4
2017-Dec-07 04:00N 31°46' W 123°32'612.5
2017-Dec-07 03:30N 31°49' W 123°39'612.7
2017-Dec-07 03:00N 31°53' W 123°44'612.8
2017-Dec-07 02:30N 31°57' W 123°50'612.9
2017-Dec-07 02:00N 32°02' W 123°55'713.0
2017-Dec-07 01:30N 32°07' W 123°60'612.8
2017-Dec-07 01:00N 32°13' W 124°04'612.8
2017-Dec-07 00:30N 32°18' W 124°08'713.1
2017-Dec-07 00:00N 32°24' W 124°12'714.1
2017-Dec-06 23:30N 32°29' W 124°17'713.9
2017-Dec-06 23:00N 32°35' W 124°21'713.3
2017-Dec-06 22:30N 32°41' W 124°25'713.2
2017-Dec-06 22:00N 32°46' W 124°29'713.3
2017-Dec-06 21:30N 32°52' W 124°34'713.3
2017-Dec-06 21:00N 32°57' W 124°38'  
2017-Dec-02 08:50N 53°60' W 131°03'512.3
2017-Dec-02 08:28N 54°05' W 131°03'15 8.1
2017-Dec-02 06:35N 54°17' W 130°49'1 7.8
2017-Dec-02 06:30N 54°17' W 130°49'612.1
2017-Dec-02 06:00N 54°14' W 130°39'613.0
2017-Dec-02 05:30N 54°12' W 130°29'5 9.1
2017-Dec-02 05:01N 54°13' W 130°21'4 8.5
2017-Dec-02 04:30N 54°17' W 130°22'1 0.4
2017-Dec-02 01:08N 54°18' W 130°21'0 0.0
2017-Dec-02 00:56N 54°18' W 130°21'0 0.0
2017-Dec-02 00:26N 54°18' W 130°21'0 0.0
2017-Dec-01 23:56N 54°18' W 130°21'0 0.0
2017-Dec-01 23:26N 54°18' W 130°21'0 0.0
2017-Dec-01 22:56N 54°18' W 130°21'0 0.0
2017-Dec-01 22:26N 54°18' W 130°21'0 0.0
2017-Dec-01 21:56N 54°18' W 130°21'0 0.0
2017-Dec-01 21:29N 54°18' W 130°21'0 0.0
2017-Dec-01 20:59N 54°18' W 130°21'0 0.0
2017-Dec-01 20:29N 54°18' W 130°21'0 0.0
2017-Dec-01 17:44N 54°18' W 130°21'0 0.0
2017-Dec-01 17:29N 54°18' W 130°21'0 0.0
2017-Dec-01 16:59N 54°18' W 130°21'0 0.0
2017-Dec-01 16:29N 54°18' W 130°21'0 0.0
2017-Dec-01 15:59N 54°18' W 130°21'0 0.0
2017-Dec-01 15:29N 54°18' W 130°21'0 0.0
2017-Dec-01 14:59N 54°18' W 130°21'0 0.0
2017-Dec-01 14:29N 54°18' W 130°21'0 0.0
2017-Dec-01 13:59N 54°18' W 130°21'0 0.0
2017-Dec-01 13:29N 54°18' W 130°21'0 0.0
2017-Dec-01 12:59N 54°18' W 130°21'0 0.0
2017-Dec-01 12:29N 54°18' W 130°21'0 0.0
2017-Dec-01 11:59N 54°18' W 130°21'0 0.0
2017-Dec-01 11:29N 54°18' W 130°21'0 0.0
2017-Dec-01 10:56N 54°18' W 130°21'0 0.0
2017-Dec-01 10:29N 54°18' W 130°21'0 0.0
2017-Dec-01 09:59N 54°18' W 130°21'0 0.0
2017-Dec-01 09:29N 54°18' W 130°21'0 0.0
2017-Dec-01 08:59N 54°18' W 130°21'0 0.0
2017-Dec-01 08:29N 54°18' W 130°21'0 0.0
2017-Dec-01 07:56N 54°18' W 130°21'0 0.0
2017-Dec-01 07:26N 54°18' W 130°21'0 0.0
2017-Dec-01 06:56N 54°18' W 130°21'0 0.0
2017-Dec-01 06:29N 54°18' W 130°21'0 0.0
2017-Dec-01 05:56N 54°18' W 130°21'0 0.0
2017-Dec-01 05:29N 54°18' W 130°21'0 0.0
2017-Dec-01 04:59N 54°18' W 130°21'0 0.0
2017-Dec-01 04:29N 54°18' W 130°21'0 0.0
2017-Dec-01 03:59N 54°18' W 130°21'0 0.0
2017-Dec-01 03:29N 54°18' W 130°21'0 0.0
2017-Dec-01 02:59N 54°18' W 130°21'0 0.0
2017-Dec-01 02:29N 54°18' W 130°21'0 0.0
2017-Dec-01 01:59N 54°18' W 130°21'0 0.0
2017-Dec-01 01:29N 54°18' W 130°21'0 0.0
2017-Dec-01 00:59N 54°18' W 130°21'0 0.1
2017-Dec-01 00:29N 54°18' W 130°21'0 0.0
2017-Nov-30 23:59N 54°18' W 130°21'0 0.0
2017-Nov-30 23:29N 54°18' W 130°21'0 0.0
2017-Nov-30 22:59N 54°18' W 130°21'0 0.0
2017-Nov-30 22:23N 54°18' W 130°21'0 0.0
2017-Nov-30 21:59N 54°18' W 130°21'0 0.0
2017-Nov-30 21:29N 54°18' W 130°21'0 0.0
2017-Nov-30 20:59N 54°18' W 130°21'0 0.0
2017-Nov-30 20:29N 54°18' W 130°21'0 0.0
2017-Nov-30 19:59N 54°18' W 130°21'0 0.0
2017-Nov-30 19:29N 54°18' W 130°21'0 0.0
2017-Nov-30 18:59N 54°18' W 130°21'0 0.0
2017-Nov-30 18:29N 54°18' W 130°21'0 0.0
2017-Nov-30 17:47N 54°18' W 130°21'0 0.0
2017-Nov-30 17:29N 54°18' W 130°21'0 0.0
2017-Nov-30 16:59N 54°18' W 130°21'0 0.0
2017-Nov-30 16:29N 54°18' W 130°21'0 0.0
2017-Nov-30 15:59N 54°18' W 130°21'0 0.0
2017-Nov-30 13:05N 54°18' W 130°21'0 0.0
2017-Nov-30 12:41N 54°18' W 130°21'0 0.0
2017-Nov-30 12:20N 54°18' W 130°21'0 0.0
2017-Nov-30 08:59N 54°18' W 130°21'0 0.0
2017-Nov-30 07:53N 54°18' W 130°21'0 0.0
2017-Nov-30 07:29N 54°18' W 130°21'0 0.0
2017-Nov-30 06:59N 54°18' W 130°21'0 0.0
2017-Nov-30 06:29N 54°18' W 130°21'0 0.0
2017-Nov-30 05:35N 54°18' W 130°21'0 0.0
2017-Nov-30 05:17N 54°18' W 130°21'0 0.0
2017-Nov-30 04:59N 54°18' W 130°21'0 0.1
2017-Nov-30 04:29N 54°18' W 130°21'0 0.0
2017-Nov-30 03:59N 54°18' W 130°21'0 0.0
2017-Nov-30 03:29N 54°18' W 130°21'0 0.0
2017-Nov-30 02:59N 54°18' W 130°21'0 0.0
2017-Nov-30 02:29N 54°18' W 130°21'0 0.0
2017-Nov-30 01:59N 54°18' W 130°21'0 0.0
2017-Nov-30 01:29N 54°18' W 130°21'0 0.0
2017-Nov-30 00:59N 54°18' W 130°21'0 0.0
2017-Nov-30 00:29N 54°18' W 130°21'0 0.0
2017-Nov-29 23:59N 54°18' W 130°21'0 0.0
2017-Nov-29 23:25N 54°18' W 130°21'0 0.0
2017-Nov-29 22:58N 54°18' W 130°21'0 0.0
2017-Nov-29 22:28N 54°18' W 130°21'0 0.0
2017-Nov-29 21:58N 54°18' W 130°21'0 0.0
2017-Nov-29 21:28N 54°18' W 130°21'0 0.0
2017-Nov-29 20:55N 54°18' W 130°21'0 0.0
2017-Nov-29 20:28N 54°18' W 130°21'0 0.0
2017-Nov-29 19:52N 54°18' W 130°21'0 0.0
2017-Nov-29 19:28N 54°18' W 130°21'0 0.0
2017-Nov-29 18:55N 54°18' W 130°21'0 0.0
2017-Nov-29 17:49N 54°18' W 130°21'0 0.0
2017-Nov-29 17:13N 54°18' W 130°21'0 0.0
2017-Nov-29 16:34N 54°18' W 130°21'0 0.0
2017-Nov-29 16:22N 54°18' W 130°21'0 0.0
2017-Nov-29 15:40N 54°18' W 130°21'0 0.0
2017-Nov-29 15:28N 54°18' W 130°21'0 0.0
2017-Nov-29 14:58N 54°18' W 130°21'0 0.0
2017-Nov-29 14:28N 54°18' W 130°21'0 0.0
2017-Nov-29 13:58N 54°18' W 130°21'0 0.0
2017-Nov-29 13:28N 54°18' W 130°21'0 0.0
2017-Nov-29 12:58N 54°18' W 130°21'0 0.0
2017-Nov-29 12:28N 54°18' W 130°21'0 0.0
2017-Nov-29 11:58N 54°18' W 130°21'0 0.0
2017-Nov-29 11:28N 54°18' W 130°21'0 0.0
2017-Nov-29 10:58N 54°18' W 130°21'0 0.0
2017-Nov-29 10:28N 54°18' W 130°21'0 0.0
2017-Nov-29 09:58N 54°18' W 130°21'0 0.0
2017-Nov-29 09:28N 54°18' W 130°21'0 0.0
2017-Nov-29 08:58N 54°18' W 130°21'0 0.0
2017-Nov-29 08:28N 54°18' W 130°21'0 0.0
2017-Nov-29 07:55N 54°18' W 130°21'0 0.0
2017-Nov-29 07:28N 54°18' W 130°21'0 0.0
2017-Nov-29 06:43N 54°18' W 130°21'0 0.0
2017-Nov-29 06:28N 54°18' W 130°21'0 0.0
2017-Nov-29 05:58N 54°18' W 130°21'0 0.0
2017-Nov-29 05:28N 54°18' W 130°21'0 0.0
2017-Nov-29 04:55N 54°18' W 130°21'0 0.0
2017-Nov-29 04:28N 54°18' W 130°21'0 0.0
2017-Nov-29 03:58N 54°18' W 130°21'0 0.0
2017-Nov-29 03:28N 54°18' W 130°21'0 0.0
2017-Nov-29 02:58N 54°18' W 130°21'0 0.0
2017-Nov-29 02:28N 54°18' W 130°21'0 0.0
2017-Nov-29 01:58N 54°18' W 130°21'0 0.0
2017-Nov-29 01:28N 54°18' W 130°21'0 0.0
2017-Nov-29 00:58N 54°18' W 130°21'0 0.0
2017-Nov-29 00:28N 54°18' W 130°21'0 0.0
2017-Nov-28 23:58N 54°18' W 130°21'0 0.0
2017-Nov-28 23:28N 54°18' W 130°21'0 0.0
2017-Nov-28 22:58N 54°18' W 130°21'0 0.0
2017-Nov-28 22:28N 54°18' W 130°21'0 0.0
2017-Nov-28 21:58N 54°18' W 130°21'0 0.0
2017-Nov-28 21:28N 54°18' W 130°21'0 0.0
2017-Nov-28 20:58N 54°18' W 130°21'0 0.0
2017-Nov-28 20:28N 54°18' W 130°21'0 0.0
2017-Nov-28 19:58N 54°18' W 130°21'0 0.0
2017-Nov-28 19:25N 54°18' W 130°21'0 0.0
2017-Nov-28 18:58N 54°18' W 130°21'0 0.0
2017-Nov-28 18:28N 54°18' W 130°21'0 0.0
2017-Nov-28 17:58N 54°18' W 130°21'0 0.0
2017-Nov-28 17:28N 54°18' W 130°21'0 0.0
2017-Nov-28 16:52N 54°18' W 130°21'0 0.0
2017-Nov-28 16:28N 54°18' W 130°21'0 0.0
2017-Nov-28 15:55N 54°18' W 130°21'0 0.0
2017-Nov-28 14:58N 54°18' W 130°21'0 0.0
2017-Nov-28 14:28N 54°18' W 130°21'0 0.0
2017-Nov-28 13:58N 54°18' W 130°21'0 0.0
2017-Nov-28 13:28N 54°18' W 130°21'0 0.0
2017-Nov-28 12:58N 54°18' W 130°21'0 0.0
2017-Nov-28 12:28N 54°18' W 130°21'0 0.0
2017-Nov-28 11:52N 54°18' W 130°21'0 0.0
2017-Nov-28 11:28N 54°18' W 130°21'0 0.0
2017-Nov-28 10:58N 54°18' W 130°21'0 0.0
2017-Nov-28 10:25N 54°18' W 130°21'0 0.0
2017-Nov-28 09:58N 54°18' W 130°21'0 0.0
2017-Nov-28 09:28N 54°18' W 130°21'0 0.0
2017-Nov-28 08:58N 54°18' W 130°21'0 0.0
2017-Nov-28 08:28N 54°18' W 130°21'0 0.0
2017-Nov-28 07:58N 54°18' W 130°21'0 0.0
2017-Nov-28 07:28N 54°18' W 130°21'0 0.0
2017-Nov-28 06:58N 54°18' W 130°21'0 0.0
2017-Nov-28 06:28N 54°18' W 130°21'0 0.0
2017-Nov-28 05:55N 54°18' W 130°21'0 0.0
2017-Nov-28 05:28N 54°18' W 130°21'0 0.0
2017-Nov-28 04:28N 54°18' W 130°21'0 0.0
2017-Nov-28 03:58N 54°18' W 130°21'0 0.0
2017-Nov-28 03:28N 54°18' W 130°21'0 0.0
2017-Nov-28 02:58N 54°18' W 130°21'0 0.0
2017-Nov-28 02:22N 54°18' W 130°21'0 0.0
2017-Nov-28 01:58N 54°18' W 130°21'0 0.0
2017-Nov-28 01:28N 54°18' W 130°21'0 0.0
2017-Nov-28 00:58N 54°18' W 130°21'0 0.0
2017-Nov-28 00:28N 54°18' W 130°21'0 0.0
2017-Nov-27 23:58N 54°18' W 130°21'0 0.0
2017-Nov-27 23:28N 54°18' W 130°21'0 0.0
2017-Nov-27 22:58N 54°18' W 130°21'0 0.0
2017-Nov-27 22:22N 54°18' W 130°21'0 0.0
2017-Nov-27 21:58N 54°18' W 130°21'0 0.0
2017-Nov-27 21:28N 54°18' W 130°21'0 0.0
2017-Nov-27 20:58N 54°18' W 130°21'0 0.0
2017-Nov-27 20:28N 54°18' W 130°21'0 0.0
2017-Nov-27 19:58N 54°18' W 130°21'0 0.0
2017-Nov-27 19:28N 54°18' W 130°21'0 0.0
2017-Nov-27 18:58N 54°18' W 130°21'0 0.0
2017-Nov-27 18:28N 54°18' W 130°21'0 0.0
2017-Nov-27 17:58N 54°18' W 130°21'0 0.0
2017-Nov-27 17:28N 54°18' W 130°21'  
Track history (hours):
 
Tides and Currents Weather Stations Pressure Air Temp Water Temp Dewpoint Dewpoint Depression Visibility Wind Speed Wind Dir Waves Ship Positions

Km Imabari

Last reported at 2017-Dec-07 17:02 UTC. Time now 2017-Dec-16 15:11 UTC.
Position N 29°58' W 121°02'.
Warning: this ship's position is 8 days out of date.

Length 225 m; draft 11.9 m.

Type: Cargo ship. MMSI: 352497000.

Date/timePositionNaut miles runAvg speedWind from/ knotsBaromVisibWave heightAir tempDewpointWater temp
2017-Dec-07 17:02N 29°58' W 121°02'012.7
2017-Dec-07 17:00N 29°59' W 121°03'1413.3
2017-Dec-07 15:56N 30°07' W 121°16'713.1
2017-Dec-07 15:24N 30°12' W 121°22'4312.9
2017-Dec-07 12:06N 30°39' W 122°00'113.0
2017-Dec-07 12:00N 30°39' W 122°01'713.0
2017-Dec-07 11:30N 30°44' W 122°07'1312.9
2017-Dec-07 10:29N 30°52' W 122°19'1112.8
2017-Dec-07 09:40N 30°59' W 122°28'212.9
2017-Dec-07 09:30N 31°00' W 122°30'612.9
2017-Dec-07 09:00N 31°04' W 122°36'612.7
2017-Dec-07 08:30N 31°08' W 122°41'1112.8
2017-Dec-07 07:39N 31°15' W 122°51'212.9
2017-Dec-07 07:29N 31°17' W 122°53'712.9
2017-Dec-07 06:58N 31°21' W 122°59'613.0
2017-Dec-07 06:30N 31°25' W 123°05'712.9
2017-Dec-07 05:58N 31°29' W 123°11'612.6
2017-Dec-07 05:30N 31°33' W 123°16'612.7
2017-Dec-07 05:00N 31°37' W 123°22'612.5
2017-Dec-07 04:30N 31°41' W 123°27'612.4
2017-Dec-07 04:00N 31°46' W 123°32'612.5
2017-Dec-07 03:30N 31°49' W 123°39'612.7
2017-Dec-07 03:00N 31°53' W 123°44'612.8
2017-Dec-07 02:30N 31°57' W 123°50'612.9
2017-Dec-07 02:00N 32°02' W 123°55'713.0
2017-Dec-07 01:30N 32°07' W 123°60'612.8
2017-Dec-07 01:00N 32°13' W 124°04'612.8
2017-Dec-07 00:30N 32°18' W 124°08'713.1
2017-Dec-07 00:00N 32°24' W 124°12'714.1
2017-Dec-06 23:30N 32°29' W 124°17'713.9
2017-Dec-06 23:00N 32°35' W 124°21'713.3
2017-Dec-06 22:30N 32°41' W 124°25'713.2
2017-Dec-06 22:00N 32°46' W 124°29'713.3
2017-Dec-06 21:30N 32°52' W 124°34'713.3
2017-Dec-06 21:00N 32°57' W 124°38'  
2017-Dec-02 08:50N 53°60' W 131°03'512.3
2017-Dec-02 08:28N 54°05' W 131°03'15 8.1
2017-Dec-02 06:35N 54°17' W 130°49'1 7.8
2017-Dec-02 06:30N 54°17' W 130°49'612.1
2017-Dec-02 06:00N 54°14' W 130°39'613.0
2017-Dec-02 05:30N 54°12' W 130°29'5 9.1
2017-Dec-02 05:01N 54°13' W 130°21'4 8.5
2017-Dec-02 04:30N 54°17' W 130°22'1 0.4
2017-Dec-02 01:08N 54°18' W 130°21'0 0.0
2017-Dec-02 00:56N 54°18' W 130°21'0 0.0
2017-Dec-02 00:26N 54°18' W 130°21'0 0.0
2017-Dec-01 23:56N 54°18' W 130°21'0 0.0
2017-Dec-01 23:26N 54°18' W 130°21'0 0.0
2017-Dec-01 22:56N 54°18' W 130°21'0 0.0
2017-Dec-01 22:26N 54°18' W 130°21'0 0.0
2017-Dec-01 21:56N 54°18' W 130°21'0 0.0
2017-Dec-01 21:29N 54°18' W 130°21'0 0.0
2017-Dec-01 20:59N 54°18' W 130°21'0 0.0
2017-Dec-01 20:29N 54°18' W 130°21'0 0.0
2017-Dec-01 17:44N 54°18' W 130°21'0 0.0
2017-Dec-01 17:29N 54°18' W 130°21'0 0.0
2017-Dec-01 16:59N 54°18' W 130°21'0 0.0
2017-Dec-01 16:29N 54°18' W 130°21'0 0.0
2017-Dec-01 15:59N 54°18' W 130°21'0 0.0
2017-Dec-01 15:29N 54°18' W 130°21'0 0.0
2017-Dec-01 14:59N 54°18' W 130°21'0 0.0
2017-Dec-01 14:29N 54°18' W 130°21'0 0.0
2017-Dec-01 13:59N 54°18' W 130°21'0 0.0
2017-Dec-01 13:29N 54°18' W 130°21'0 0.0
2017-Dec-01 12:59N 54°18' W 130°21'0 0.0
2017-Dec-01 12:29N 54°18' W 130°21'0 0.0
2017-Dec-01 11:59N 54°18' W 130°21'0 0.0
2017-Dec-01 11:29N 54°18' W 130°21'0 0.0
2017-Dec-01 10:56N 54°18' W 130°21'0 0.0
2017-Dec-01 10:29N 54°18' W 130°21'0 0.0
2017-Dec-01 09:59N 54°18' W 130°21'0 0.0
2017-Dec-01 09:29N 54°18' W 130°21'0 0.0
2017-Dec-01 08:59N 54°18' W 130°21'0 0.0
2017-Dec-01 08:29N 54°18' W 130°21'0 0.0
2017-Dec-01 07:56N 54°18' W 130°21'0 0.0
2017-Dec-01 07:26N 54°18' W 130°21'0 0.0
2017-Dec-01 06:56N 54°18' W 130°21'0 0.0
2017-Dec-01 06:29N 54°18' W 130°21'0 0.0
2017-Dec-01 05:56N 54°18' W 130°21'0 0.0
2017-Dec-01 05:29N 54°18' W 130°21'0 0.0
2017-Dec-01 04:59N 54°18' W 130°21'0 0.0
2017-Dec-01 04:29N 54°18' W 130°21'0 0.0
2017-Dec-01 03:59N 54°18' W 130°21'0 0.0
2017-Dec-01 03:29N 54°18' W 130°21'0 0.0
2017-Dec-01 02:59N 54°18' W 130°21'0 0.0
2017-Dec-01 02:29N 54°18' W 130°21'0 0.0
2017-Dec-01 01:59N 54°18' W 130°21'0 0.0
2017-Dec-01 01:29N 54°18' W 130°21'0 0.0
2017-Dec-01 00:59N 54°18' W 130°21'0 0.1
2017-Dec-01 00:29N 54°18' W 130°21'0 0.0
2017-Nov-30 23:59N 54°18' W 130°21'0 0.0
2017-Nov-30 23:29N 54°18' W 130°21'0 0.0
2017-Nov-30 22:59N 54°18' W 130°21'0 0.0
2017-Nov-30 22:23N 54°18' W 130°21'0 0.0
2017-Nov-30 21:59N 54°18' W 130°21'0 0.0
2017-Nov-30 21:29N 54°18' W 130°21'0 0.0
2017-Nov-30 20:59N 54°18' W 130°21'0 0.0
2017-Nov-30 20:29N 54°18' W 130°21'0 0.0
2017-Nov-30 19:59N 54°18' W 130°21'0 0.0
2017-Nov-30 19:29N 54°18' W 130°21'0 0.0
2017-Nov-30 18:59N 54°18' W 130°21'0 0.0
2017-Nov-30 18:29N 54°18' W 130°21'0 0.0
2017-Nov-30 17:47N 54°18' W 130°21'0 0.0
2017-Nov-30 17:29N 54°18' W 130°21'0 0.0
2017-Nov-30 16:59N 54°18' W 130°21'0 0.0
2017-Nov-30 16:29N 54°18' W 130°21'0 0.0
2017-Nov-30 15:59N 54°18' W 130°21'0 0.0
2017-Nov-30 13:05N 54°18' W 130°21'0 0.0
2017-Nov-30 12:41N 54°18' W 130°21'0 0.0
2017-Nov-30 12:20N 54°18' W 130°21'0 0.0
2017-Nov-30 08:59N 54°18' W 130°21'0 0.0
2017-Nov-30 07:53N 54°18' W 130°21'0 0.0
2017-Nov-30 07:29N 54°18' W 130°21'0 0.0
2017-Nov-30 06:59N 54°18' W 130°21'0 0.0
2017-Nov-30 06:29N 54°18' W 130°21'0 0.0
2017-Nov-30 05:35N 54°18' W 130°21'0 0.0
2017-Nov-30 05:17N 54°18' W 130°21'0 0.0
2017-Nov-30 04:59N 54°18' W 130°21'0 0.1
2017-Nov-30 04:29N 54°18' W 130°21'0 0.0
2017-Nov-30 03:59N 54°18' W 130°21'0 0.0
2017-Nov-30 03:29N 54°18' W 130°21'0 0.0
2017-Nov-30 02:59N 54°18' W 130°21'0 0.0
2017-Nov-30 02:29N 54°18' W 130°21'0 0.0
2017-Nov-30 01:59N 54°18' W 130°21'0 0.0
2017-Nov-30 01:29N 54°18' W 130°21'0 0.0
2017-Nov-30 00:59N 54°18' W 130°21'0 0.0
2017-Nov-30 00:29N 54°18' W 130°21'0 0.0
2017-Nov-29 23:59N 54°18' W 130°21'0 0.0
2017-Nov-29 23:25N 54°18' W 130°21'0 0.0
2017-Nov-29 22:58N 54°18' W 130°21'0 0.0
2017-Nov-29 22:28N 54°18' W 130°21'0 0.0
2017-Nov-29 21:58N 54°18' W 130°21'0 0.0
2017-Nov-29 21:28N 54°18' W 130°21'0 0.0
2017-Nov-29 20:55N 54°18' W 130°21'0 0.0
2017-Nov-29 20:28N 54°18' W 130°21'0 0.0
2017-Nov-29 19:52N 54°18' W 130°21'0 0.0
2017-Nov-29 19:28N 54°18' W 130°21'0 0.0
2017-Nov-29 18:55N 54°18' W 130°21'0 0.0
2017-Nov-29 17:49N 54°18' W 130°21'0 0.0
2017-Nov-29 17:13N 54°18' W 130°21'0 0.0
2017-Nov-29 16:34N 54°18' W 130°21'0 0.0
2017-Nov-29 16:22N 54°18' W 130°21'0 0.0
2017-Nov-29 15:40N 54°18' W 130°21'0 0.0
2017-Nov-29 15:28N 54°18' W 130°21'0 0.0
2017-Nov-29 14:58N 54°18' W 130°21'0 0.0
2017-Nov-29 14:28N 54°18' W 130°21'0 0.0
2017-Nov-29 13:58N 54°18' W 130°21'0 0.0
2017-Nov-29 13:28N 54°18' W 130°21'0 0.0
2017-Nov-29 12:58N 54°18' W 130°21'0 0.0
2017-Nov-29 12:28N 54°18' W 130°21'0 0.0
2017-Nov-29 11:58N 54°18' W 130°21'0 0.0
2017-Nov-29 11:28N 54°18' W 130°21'0 0.0
2017-Nov-29 10:58N 54°18' W 130°21'0 0.0
2017-Nov-29 10:28N 54°18' W 130°21'0 0.0
2017-Nov-29 09:58N 54°18' W 130°21'0 0.0
2017-Nov-29 09:28N 54°18' W 130°21'0 0.0
2017-Nov-29 08:58N 54°18' W 130°21'0 0.0
2017-Nov-29 08:28N 54°18' W 130°21'0 0.0
2017-Nov-29 07:55N 54°18' W 130°21'0 0.0
2017-Nov-29 07:28N 54°18' W 130°21'0 0.0
2017-Nov-29 06:43N 54°18' W 130°21'0 0.0
2017-Nov-29 06:28N 54°18' W 130°21'0 0.0
2017-Nov-29 05:58N 54°18' W 130°21'0 0.0
2017-Nov-29 05:28N 54°18' W 130°21'0 0.0
2017-Nov-29 04:55N 54°18' W 130°21'0 0.0
2017-Nov-29 04:28N 54°18' W 130°21'0 0.0
2017-Nov-29 03:58N 54°18' W 130°21'0 0.0
2017-Nov-29 03:28N 54°18' W 130°21'0 0.0
2017-Nov-29 02:58N 54°18' W 130°21'0 0.0
2017-Nov-29 02:28N 54°18' W 130°21'0 0.0
2017-Nov-29 01:58N 54°18' W 130°21'0 0.0
2017-Nov-29 01:28N 54°18' W 130°21'0 0.0
2017-Nov-29 00:58N 54°18' W 130°21'0 0.0
2017-Nov-29 00:28N 54°18' W 130°21'0 0.0
2017-Nov-28 23:58N 54°18' W 130°21'0 0.0
2017-Nov-28 23:28N 54°18' W 130°21'0 0.0
2017-Nov-28 22:58N 54°18' W 130°21'0 0.0
2017-Nov-28 22:28N 54°18' W 130°21'0 0.0
2017-Nov-28 21:58N 54°18' W 130°21'0 0.0
2017-Nov-28 21:28N 54°18' W 130°21'0 0.0
2017-Nov-28 20:58N 54°18' W 130°21'0 0.0
2017-Nov-28 20:28N 54°18' W 130°21'0 0.0
2017-Nov-28 19:58N 54°18' W 130°21'0 0.0
2017-Nov-28 19:25N 54°18' W 130°21'0 0.0
2017-Nov-28 18:58N 54°18' W 130°21'0 0.0
2017-Nov-28 18:28N 54°18' W 130°21'0 0.0
2017-Nov-28 17:58N 54°18' W 130°21'0 0.0
2017-Nov-28 17:28N 54°18' W 130°21'0 0.0
2017-Nov-28 16:52N 54°18' W 130°21'0 0.0
2017-Nov-28 16:28N 54°18' W 130°21'0 0.0
2017-Nov-28 15:55N 54°18' W 130°21'0 0.0
2017-Nov-28 14:58N 54°18' W 130°21'0 0.0
2017-Nov-28 14:28N 54°18' W 130°21'0 0.0
2017-Nov-28 13:58N 54°18' W 130°21'0 0.0
2017-Nov-28 13:28N 54°18' W 130°21'0 0.0
2017-Nov-28 12:58N 54°18' W 130°21'0 0.0
2017-Nov-28 12:28N 54°18' W 130°21'0 0.0
2017-Nov-28 11:52N 54°18' W 130°21'0 0.0
2017-Nov-28 11:28N 54°18' W 130°21'0 0.0
2017-Nov-28 10:58N 54°18' W 130°21'0 0.0
2017-Nov-28 10:25N 54°18' W 130°21'0 0.0
2017-Nov-28 09:58N 54°18' W 130°21'0 0.0
2017-Nov-28 09:28N 54°18' W 130°21'0 0.0
2017-Nov-28 08:58N 54°18' W 130°21'0 0.0
2017-Nov-28 08:28N 54°18' W 130°21'0 0.0
2017-Nov-28 07:58N 54°18' W 130°21'0 0.0
2017-Nov-28 07:28N 54°18' W 130°21'0 0.0
2017-Nov-28 06:58N 54°18' W 130°21'0 0.0
2017-Nov-28 06:28N 54°18' W 130°21'0 0.0
2017-Nov-28 05:55N 54°18' W 130°21'0 0.0
2017-Nov-28 05:28N 54°18' W 130°21'0 0.0
2017-Nov-28 04:28N 54°18' W 130°21'0 0.0
2017-Nov-28 03:58N 54°18' W 130°21'0 0.0
2017-Nov-28 03:28N 54°18' W 130°21'0 0.0
2017-Nov-28 02:58N 54°18' W 130°21'0 0.0
2017-Nov-28 02:22N 54°18' W 130°21'0 0.0
2017-Nov-28 01:58N 54°18' W 130°21'0 0.0
2017-Nov-28 01:28N 54°18' W 130°21'0 0.0
2017-Nov-28 00:58N 54°18' W 130°21'0 0.0
2017-Nov-28 00:28N 54°18' W 130°21'0 0.0
2017-Nov-27 23:58N 54°18' W 130°21'0 0.0
2017-Nov-27 23:28N 54°18' W 130°21'0 0.0
2017-Nov-27 22:58N 54°18' W 130°21'0 0.0
2017-Nov-27 22:22N 54°18' W 130°21'0 0.0
2017-Nov-27 21:58N 54°18' W 130°21'0 0.0
2017-Nov-27 21:28N 54°18' W 130°21'0 0.0
2017-Nov-27 20:58N 54°18' W 130°21'0 0.0
2017-Nov-27 20:28N 54°18' W 130°21'0 0.0
2017-Nov-27 19:58N 54°18' W 130°21'0 0.0
2017-Nov-27 19:28N 54°18' W 130°21'0 0.0
2017-Nov-27 18:58N 54°18' W 130°21'0 0.0
2017-Nov-27 18:28N 54°18' W 130°21'0 0.0
2017-Nov-27 17:58N 54°18' W 130°21'0 0.0
2017-Nov-27 17:28N 54°18' W 130°21'  

Dump ship's entire track history